createdAt,value
2023-01-09T00:01:56.178Z,10.18
2023-01-09T00:04:23.920Z,11.00
2023-01-09T00:06:54.822Z,11.02
2023-01-09T00:09:26.201Z,11.23
2023-01-09T00:11:55.190Z,11.73
2023-01-09T00:14:24.104Z,11.43
2023-01-09T00:16:55.306Z,11.07
2023-01-09T00:19:23.345Z,11.32
2023-01-09T00:21:51.257Z,11.48
2023-01-09T00:24:19.712Z,9.40
2023-01-09T00:26:47.575Z,12.02
2023-01-09T00:29:16.079Z,10.05
2023-01-09T00:31:43.833Z,10.13
2023-01-09T00:34:12.296Z,10.02
2023-01-09T00:36:40.200Z,10.40
2023-01-09T00:39:08.108Z,11.23
2023-01-09T00:41:38.499Z,11.98
2023-01-09T00:44:15.249Z,10.20
2023-01-09T00:46:45.856Z,10.75
2023-01-09T00:49:13.756Z,10.40
2023-01-09T00:51:41.895Z,10.98
2023-01-09T00:54:11.342Z,11.68
2023-01-09T00:56:39.552Z,8.70
2023-01-09T00:59:08.009Z,11.07
2023-01-09T01:01:36.049Z,12.50
2023-01-09T01:04:24.067Z,11.00
2023-01-09T01:07:11.183Z,11.63
2023-01-09T01:09:39.746Z,11.88
2023-01-09T01:12:08.989Z,11.82
2023-01-09T01:14:37.288Z,11.43
2023-01-09T01:17:05.956Z,11.77
2023-01-09T01:19:35.191Z,11.80
2023-01-09T01:22:03.622Z,11.65
2023-01-09T01:24:31.776Z,12.60
2023-01-09T01:26:59.998Z,10.25
2023-01-09T01:29:28.668Z,11.27
2023-01-09T01:31:56.473Z,11.88
2023-01-09T01:34:25.888Z,11.60
2023-01-09T01:36:53.738Z,11.20
2023-01-09T01:39:21.954Z,10.75
2023-01-09T01:41:49.851Z,13.10
2023-01-09T01:44:54.892Z,10.68
2023-01-09T01:47:24.148Z,11.10
2023-01-09T01:49:55.259Z,10.25
2023-01-09T01:52:25.123Z,9.95
2023-01-09T01:54:53.201Z,12.02
2023-01-09T01:57:20.951Z,13.13
2023-01-09T01:59:54.157Z,12.98
2023-01-09T02:02:24.007Z,13.50
2023-01-09T02:04:52.657Z,12.88
2023-01-09T02:07:20.703Z,12.18
2023-01-09T02:09:48.805Z,12.65
2023-01-09T02:12:25.525Z,11.45
2023-01-09T02:15:09.921Z,12.43
2023-01-09T02:18:05.841Z,12.18
2023-01-09T02:23:25.600Z,10.27
2023-01-09T02:26:23.797Z,10.63
2023-01-09T02:29:20.191Z,10.65
2023-01-09T02:32:20.698Z,10.82
2023-01-09T02:35:17.886Z,10.57
2023-01-09T02:38:18.832Z,11.50
2023-01-09T02:40:57.786Z,12.38
2023-01-09T02:43:26.638Z,11.05
2023-01-09T02:46:01.283Z,11.52
2023-01-09T02:48:29.768Z,10.45
2023-01-09T02:51:20.471Z,11.63
2023-01-09T02:54:13.863Z,12.05
2023-01-09T02:56:45.052Z,12.35
2023-01-09T02:59:13.245Z,11.30
2023-01-09T03:02:26.053Z,12.07
2023-01-09T03:05:01.723Z,10.60
2023-01-09T03:07:38.397Z,9.95
2023-01-09T03:10:41.676Z,10.32
2023-01-09T03:13:13.008Z,11.50
2023-01-09T03:15:41.765Z,13.40
2023-01-09T03:18:10.560Z,11.00
2023-01-09T03:20:38.573Z,11.38
2023-01-09T03:23:07.084Z,10.73
2023-01-09T03:25:35.027Z,12.73
2023-01-09T03:28:05.472Z,10.40
2023-01-09T03:30:34.173Z,11.05
2023-01-09T03:33:03.495Z,12.02
2023-01-09T03:35:31.442Z,10.48
2023-01-09T03:37:59.340Z,10.60
2023-01-09T03:40:29.179Z,9.60
2023-01-09T03:42:58.295Z,11.73
2023-01-09T03:45:26.501Z,11.95
2023-01-09T03:47:54.516Z,11.07
2023-01-09T03:50:22.257Z,10.98
2023-01-09T03:52:50.216Z,10.88
2023-01-09T03:55:18.405Z,12.00
2023-01-09T03:57:46.290Z,10.10
2023-01-09T04:00:14.385Z,11.07
2023-01-09T04:02:43.337Z,10.93
2023-01-09T04:05:11.159Z,12.05
2023-01-09T04:07:40.057Z,11.40
2023-01-09T04:10:08.525Z,13.10
2023-01-09T04:12:36.295Z,11.82
2023-01-09T04:15:06.010Z,12.30
2023-01-09T04:17:35.863Z,11.35
2023-01-09T04:20:04.331Z,11.68
2023-01-09T04:22:33.201Z,11.77
2023-01-09T04:25:01.126Z,11.73
2023-01-09T04:27:28.800Z,11.98
2023-01-09T04:29:57.223Z,10.48
2023-01-09T04:32:24.908Z,12.63
2023-01-09T04:34:54.920Z,13.75
2023-01-09T04:37:22.926Z,13.82
2023-01-09T04:39:51.568Z,12.85
2023-01-09T04:42:19.866Z,13.25
2023-01-09T04:44:47.683Z,10.98
2023-01-09T04:47:16.183Z,10.05
2023-01-09T04:49:43.818Z,11.82
2023-01-09T04:52:11.651Z,12.60
2023-01-09T04:54:39.696Z,11.90
2023-01-09T04:57:07.538Z,13.48
2023-01-09T04:59:36.393Z,13.05
2023-01-09T05:02:04.282Z,13.90
2023-01-09T05:04:32.357Z,12.27
2023-01-09T05:07:00.705Z,9.63
2023-01-09T05:09:28.842Z,11.13
2023-01-09T05:11:57.199Z,10.45
2023-01-09T05:14:25.070Z,10.25
2023-01-09T05:16:53.006Z,10.48
2023-01-09T05:19:21.758Z,11.13
2023-01-09T05:21:49.767Z,11.35
2023-01-09T05:24:18.370Z,12.75
2023-01-09T05:26:46.239Z,10.32
2023-01-09T05:29:14.160Z,13.18
2023-01-09T05:31:41.971Z,13.10
2023-01-09T05:34:10.297Z,13.50
2023-01-09T05:36:38.373Z,13.30
2023-01-09T05:39:07.361Z,14.57
2023-01-09T05:41:35.761Z,13.73
2023-01-09T05:44:05.200Z,11.65
2023-01-09T05:46:35.346Z,12.82
2023-01-09T05:49:03.182Z,12.70
2023-01-09T05:51:32.069Z,11.35
2023-01-09T05:54:00.440Z,11.82
2023-01-09T05:56:30.262Z,9.93
2023-01-09T05:58:58.117Z,11.35
2023-01-09T06:01:25.899Z,8.73
2023-01-09T06:03:53.711Z,9.90
2023-01-09T06:06:22.930Z,11.50
2023-01-09T06:08:51.026Z,10.25
2023-01-09T06:11:18.890Z,10.98
2023-01-09T06:13:47.288Z,11.18
2023-01-09T06:16:15.414Z,11.77
2023-01-09T06:18:43.362Z,12.13
2023-01-09T06:21:11.298Z,10.18
2023-01-09T06:23:39.114Z,12.25
2023-01-09T06:26:08.496Z,11.27
2023-01-09T06:28:36.617Z,11.70
2023-01-09T06:31:04.875Z,10.50
2023-01-09T06:33:32.972Z,7.35
2023-01-09T06:36:01.454Z,7.80
2023-01-09T06:38:29.399Z,8.30
2023-01-09T06:40:58.973Z,9.48
2023-01-09T06:43:26.790Z,10.32
2023-01-09T06:45:55.609Z,9.07
2023-01-09T06:48:27.289Z,8.40
2023-01-09T06:50:55.146Z,9.93
2023-01-09T06:53:26.737Z,6.78
2023-01-09T06:55:54.580Z,9.00
2023-01-09T06:58:22.338Z,9.90
2023-01-09T07:00:50.253Z,7.28
2023-01-09T07:03:22.691Z,8.77
2023-01-09T07:05:50.725Z,9.00
2023-01-09T07:08:18.591Z,6.97
2023-01-09T07:10:46.883Z,7.95
2023-01-09T07:13:15.764Z,8.25
2023-01-09T07:15:44.959Z,6.63
2023-01-09T07:18:13.349Z,8.95
2023-01-09T11:11:05.712Z,4.57
2023-01-09T11:13:46.945Z,3.97
2023-01-09T11:16:16.897Z,3.97
2023-01-09T11:18:59.387Z,3.13
2023-01-09T11:21:36.216Z,4.28
2023-01-09T11:24:19.565Z,4.38
2023-01-09T11:26:51.117Z,4.40
2023-01-09T11:29:21.830Z,4.68
2023-01-09T11:31:58.499Z,3.72
2023-01-09T11:34:33.887Z,4.57
2023-01-09T11:37:09.275Z,3.58
2023-01-09T11:39:41.448Z,4.32
2023-01-09T11:42:19.168Z,4.35
2023-01-09T11:44:48.007Z,4.53
2023-01-09T11:47:37.471Z,3.63
2023-01-09T11:50:22.621Z,3.97
2023-01-09T11:53:14.996Z,4.28
2023-01-09T11:55:43.428Z,4.10
2023-01-09T11:58:21.976Z,3.95
2023-01-09T12:01:05.691Z,4.03
2023-01-09T12:04:03.908Z,3.90
2023-01-09T12:06:58.067Z,4.35
2023-01-09T12:09:29.472Z,4.43
2023-01-09T12:12:10.016Z,4.88
2023-01-09T12:14:49.056Z,4.03
2023-01-09T12:17:44.727Z,5.35
2023-01-09T12:20:28.265Z,4.65
2023-01-09T12:23:00.602Z,4.40
2023-01-09T12:25:52.885Z,4.78
2023-01-09T12:28:20.691Z,7.22
2023-01-09T12:30:51.590Z,7.53
2023-01-09T12:33:28.335Z,5.93
2023-01-09T12:36:10.463Z,5.55
2023-01-09T12:38:55.078Z,5.00
2023-01-09T12:41:25.915Z,5.07
2023-01-09T12:44:04.113Z,4.85
2023-01-09T12:46:42.692Z,3.78
2023-01-09T12:49:49.135Z,3.90
2023-01-09T12:52:26.124Z,4.50
2023-01-09T12:55:05.113Z,3.60
2023-01-09T12:57:52.059Z,4.00
2023-01-09T13:00:32.505Z,4.32
2023-01-09T13:03:12.518Z,3.72
2023-01-09T13:05:45.114Z,4.35
2023-01-09T13:08:39.489Z,4.05
2023-01-09T13:11:19.974Z,3.70
2023-01-09T13:14:13.220Z,4.15
2023-01-09T13:16:48.686Z,3.10
2023-01-09T13:19:19.538Z,4.50
2023-01-09T13:21:50.292Z,4.25
2023-01-09T13:24:29.879Z,5.45
2023-01-09T13:27:03.063Z,4.28
2023-01-09T13:29:33.665Z,4.75
2023-01-09T13:32:43.972Z,4.45
2023-01-09T13:35:13.942Z,4.88
2023-01-09T13:37:42.704Z,5.15
2023-01-09T13:40:19.383Z,4.88
2023-01-09T13:43:04.333Z,5.07
2023-01-09T13:45:35.558Z,5.63
2023-01-09T13:48:18.045Z,5.65
2023-01-09T13:50:46.568Z,5.20
2023-01-09T13:53:20.489Z,4.18
2023-01-09T13:55:58.736Z,4.88
2023-01-09T13:58:37.773Z,5.18
2023-01-09T14:01:39.975Z,5.18
2023-01-09T14:04:14.910Z,4.05
2023-01-09T14:06:45.048Z,4.45
2023-01-09T14:09:19.543Z,3.88
2023-01-09T14:11:48.434Z,4.68
2023-01-09T14:14:26.180Z,5.05
2023-01-09T14:16:59.238Z,4.40
2023-01-09T14:19:35.425Z,4.20
2023-01-09T14:22:03.611Z,4.03
2023-01-09T14:24:46.659Z,4.63
2023-01-09T14:28:09.602Z,4.65
2023-01-09T14:31:00.228Z,4.82
2023-01-09T14:33:33.498Z,4.60
2023-01-09T14:36:22.105Z,4.05
2023-01-09T14:39:03.873Z,5.25
2023-01-09T14:41:57.116Z,5.03
2023-01-09T14:44:55.666Z,4.70
2023-01-09T14:47:31.711Z,4.22
2023-01-09T14:50:07.656Z,4.03
2023-01-09T14:52:40.160Z,5.13
2023-01-09T14:55:27.070Z,5.57
2023-01-09T14:57:56.388Z,4.28
2023-01-09T15:00:24.553Z,3.78
2023-01-09T15:02:52.627Z,4.28
2023-01-09T15:05:25.417Z,4.28
2023-01-09T15:07:57.102Z,5.05
2023-01-09T15:10:36.905Z,5.60
2023-01-09T15:13:06.539Z,4.30
2023-01-09T15:15:35.821Z,4.38
2023-01-09T15:18:06.936Z,3.42
2023-01-09T15:20:35.677Z,3.30
2023-01-09T15:23:06.607Z,4.45
2023-01-09T15:25:40.207Z,3.95
2023-01-09T15:28:25.271Z,4.75
2023-01-09T15:31:07.838Z,4.55
2023-01-09T15:33:39.127Z,4.85
2023-01-09T15:36:28.129Z,5.43
2023-01-09T15:38:56.027Z,4.70
2023-01-09T15:41:48.072Z,5.85
2023-01-09T15:44:26.638Z,5.35
2023-01-09T15:46:58.469Z,4.40
2023-01-09T15:49:27.295Z,5.22
2023-01-09T15:51:55.513Z,5.38
2023-01-09T15:54:34.634Z,5.10
2023-01-09T15:57:23.166Z,5.03
2023-01-09T15:59:54.531Z,4.53
2023-01-09T16:02:48.713Z,3.38
2023-01-09T16:05:17.040Z,4.63
2023-01-09T16:07:49.795Z,4.55
2023-01-09T16:10:33.904Z,4.82
2023-01-09T16:13:02.652Z,5.07
2023-01-09T19:48:53.859Z,4.88
2023-01-09T19:51:22.218Z,4.32
2023-01-09T19:56:34.088Z,5.20
2023-01-09T19:59:03.105Z,4.97
2023-01-09T20:01:33.439Z,4.68
2023-01-09T20:04:07.972Z,4.82
2023-01-09T20:06:41.524Z,3.22
2023-01-09T20:09:12.252Z,5.28
2023-01-09T20:11:41.491Z,5.40
2023-01-09T20:14:13.971Z,4.60
2023-01-09T20:16:42.163Z,4.82
2023-01-09T20:19:11.123Z,4.43
2023-01-09T20:21:38.980Z,5.03
2023-01-09T20:24:07.388Z,4.18
2023-01-09T20:26:36.274Z,4.82
2023-01-09T20:29:04.334Z,5.82
2023-01-09T20:31:33.551Z,6.57
2023-01-09T20:34:02.093Z,6.70
2023-01-09T20:36:31.071Z,6.53
2023-01-09T20:39:00.519Z,6.93
2023-01-09T20:41:31.052Z,5.47
2023-01-09T20:44:07.260Z,5.05
2023-01-09T20:46:39.623Z,3.08
2023-01-09T20:49:08.629Z,7.03
2023-01-09T20:51:40.739Z,7.97
2023-01-09T20:54:08.950Z,6.18
2023-01-09T20:56:36.971Z,6.28
2023-01-09T20:59:06.481Z,6.95
2023-01-09T21:01:35.319Z,5.50
2023-01-09T21:04:03.445Z,5.20
2023-01-09T21:06:31.769Z,4.90
2023-01-09T21:08:59.789Z,6.35
2023-01-09T21:11:29.101Z,7.70
2023-01-09T21:13:57.585Z,6.47
2023-01-09T21:16:29.287Z,4.40
2023-01-09T21:18:57.402Z,5.35
2023-01-09T21:21:27.494Z,5.72
2023-01-09T21:23:57.389Z,5.35
2023-01-09T21:26:27.728Z,7.03
2023-01-09T21:28:58.911Z,8.88
2023-01-09T21:31:35.447Z,8.82
2023-01-09T21:34:06.147Z,8.80
2023-01-09T21:36:37.303Z,6.93
2023-01-09T21:39:08.350Z,6.45
2023-01-09T21:41:55.181Z,7.15
2023-01-09T21:44:41.967Z,6.25
2023-01-09T21:47:10.752Z,5.32
2023-01-09T21:49:42.819Z,6.38
2023-01-09T21:52:12.967Z,4.70
2023-01-09T21:54:41.603Z,6.63
2023-01-09T21:57:11.190Z,7.00
2023-01-09T21:59:39.365Z,5.65
2023-01-09T22:02:07.235Z,6.30
2023-01-09T22:04:35.425Z,5.47
2023-01-09T22:07:03.448Z,5.60
2023-01-09T22:09:32.667Z,7.15
2023-01-09T22:12:00.640Z,6.53
2023-01-09T22:14:32.684Z,8.43
2023-01-09T22:17:00.949Z,7.60
2023-01-09T22:19:30.900Z,6.65
2023-01-09T22:22:00.025Z,6.18
2023-01-09T22:24:32.892Z,8.20
2023-01-09T22:27:03.532Z,6.60
2023-01-09T22:29:32.691Z,7.63
2023-01-09T22:32:00.792Z,7.00
2023-01-09T22:34:28.658Z,7.40
2023-01-09T22:37:02.965Z,5.50
2023-01-09T22:39:31.035Z,5.53
2023-01-09T22:41:59.988Z,5.07
2023-01-09T22:44:29.215Z,6.10
2023-01-09T22:46:59.509Z,5.35
2023-01-09T22:49:30.198Z,5.13
2023-01-09T22:52:01.675Z,5.45
2023-01-09T22:54:29.814Z,4.63
2023-01-09T22:56:59.075Z,4.45
2023-01-09T22:59:27.504Z,4.38
2023-01-09T23:01:58.044Z,4.32
2023-01-09T23:04:26.189Z,5.15
2023-01-09T23:06:55.134Z,5.28
2023-01-09T23:09:22.937Z,5.15
2023-01-09T23:12:03.460Z,4.60
2023-01-09T23:14:38.456Z,5.35
2023-01-09T23:17:07.855Z,4.03
2023-01-09T23:19:35.803Z,4.95
2023-01-09T23:22:04.598Z,4.72
2023-01-09T23:24:32.755Z,4.70
2023-01-09T23:27:00.748Z,3.92
2023-01-09T23:29:30.068Z,5.40
2023-01-09T23:31:58.298Z,4.45
2023-01-09T23:34:27.726Z,5.65
2023-01-09T23:36:58.148Z,5.43
2023-01-09T23:39:26.304Z,6.13
2023-01-09T23:42:13.566Z,5.22
2023-01-09T23:44:42.426Z,6.18
2023-01-09T23:47:10.331Z,7.28
2023-01-09T23:49:38.937Z,9.77
2023-01-09T23:52:08.729Z,8.57
2023-01-09T23:54:36.785Z,8.95
2023-01-09T23:57:05.011Z,9.77
2023-01-09T23:59:33.055Z,11.32
